Time;durP1;ratioP1;P1;durP2;ratioP2;P2;SDS_P1;SDS_P2;PMS_P1;PMS_P2;Temp;Humidity;BMP_temperature;BMP_pressure;BME280_temperature;BME280_humidity;BME280_pressure;Samples;Min_cycle;Max_cycle;Signal;HPM_P1;HPM_P2
2022/01/25 15:35:32;;;;;;;39.33;11.17;;;4.70;99.90;;;;;;5608153;23;20227;-77
2022/01/25 15:38:01;;;;;;;40.77;11.10;;;4.80;99.90;;;;;;4942913;28;20233;-79
2022/01/25 15:40:28;;;;;;;31.60;10.23;;;4.80;99.90;;;;;;4937902;29;20213;-79
2022/01/25 15:42:55;;;;;;;32.90;11.00;;;4.80;99.90;;;;;;4938458;29;20275;-80
2022/01/25 15:45:28;;;;;;;40.17;11.57;;;4.60;99.90;;;;;;4938712;29;20299;-74
2022/01/25 15:47:55;;;;;;;41.17;11.73;;;4.30;99.90;;;;;;4938537;29;20674;-76
2022/01/25 15:50:25;;;;;;;36.30;11.30;;;4.00;99.90;;;;;;4938709;29;20267;-76
2022/01/25 15:52:54;;;;;;;39.30;12.13;;;3.90;99.90;;;;;;4938262;29;20263;-74
2022/01/25 15:55:21;;;;;;;39.67;10.87;;;4.00;99.90;;;;;;4938274;29;20296;-73
2022/01/25 15:57:48;;;;;;;37.80;10.37;;;4.10;99.90;;;;;;4937115;29;20320;-74
2022/01/25 16:00:15;;;;;;;44.13;11.73;;;4.30;99.90;;;;;;4937660;29;20744;-75
2022/01/25 16:02:42;;;;;;;41.37;11.47;;;4.40;99.90;;;;;;4937957;29;20296;-72
2022/01/25 16:05:11;;;;;;;42.23;10.77;;;4.40;99.90;;;;;;4938288;29;20217;-74
2022/01/25 16:07:38;;;;;;;43.20;11.10;;;4.60;99.90;;;;;;4937630;29;20232;-73
2022/01/25 16:10:07;;;;;;;38.70;11.00;;;4.60;99.90;;;;;;4937115;29;20319;-75
2022/01/25 16:12:34;;;;;;;42.40;12.10;;;4.50;99.90;;;;;;4937992;29;20208;-78
2022/01/25 16:15:01;;;;;;;35.23;10.83;;;4.70;99.90;;;;;;4938480;29;20212;-76
2022/01/25 16:17:28;;;;;;;39.40;10.83;;;4.70;99.90;;;;;;4937148;29;20320;-74
2022/01/25 16:19:55;;;;;;;39.30;11.37;;;4.70;99.90;;;;;;4937395;29;20308;-71
2022/01/25 16:22:22;;;;;;;35.67;10.27;;;4.80;99.90;;;;;;4937480;29;20292;-76
2022/01/25 16:24:49;;;;;;;40.67;11.53;;;4.80;99.90;;;;;;4936604;29;20319;-76
2022/01/25 16:27:17;;;;;;;29.43;9.60;;;5.00;99.90;;;;;;4936711;29;21051;-73
2022/01/25 16:29:45;;;;;;;36.47;11.60;;;5.00;99.90;;;;;;4935713;29;20260;-75
2022/01/25 16:32:12;;;;;;;37.27;11.77;;;4.90;99.90;;;;;;4937446;29;20239;-77
2022/01/25 16:34:40;;;;;;;38.83;10.27;;;4.90;99.90;;;;;;4935339;29;20731;-77
2022/01/25 16:37:07;;;;;;;34.77;10.33;;;4.90;99.90;;;;;;4935570;29;20259;-77
2022/01/25 16:39:34;;;;;;;40.33;11.53;;;4.90;99.90;;;;;;4936956;29;20208;-77
2022/01/25 16:42:00;;;;;;;37.33;11.73;;;4.90;99.90;;;;;;4933026;29;20209;-73
2022/01/25 16:44:29;;;;;;;43.57;9.73;;;4.90;99.90;;;;;;4936231;29;20300;-72
2022/01/25 16:46:56;;;;;;;34.27;11.07;;;4.90;99.90;;;;;;4936471;29;20328;-72
2022/01/25 16:49:23;;;;;;;30.70;10.43;;;5.00;99.90;;;;;;4936695;29;20319;-73
2022/01/25 16:51:50;;;;;;;40.80;11.17;;;4.80;99.90;;;;;;4936209;29;20241;-73
2022/01/25 16:54:17;;;;;;;35.03;10.73;;;4.50;99.90;;;;;;4936195;29;20304;-72
2022/01/25 16:56:44;;;;;;;46.07;11.67;;;4.40;99.90;;;;;;4936516;29;20308;-72
2022/01/25 16:59:12;;;;;;;32.93;9.90;;;4.50;99.90;;;;;;4936226;29;20205;-73
2022/01/25 17:01:40;;;;;;;38.37;10.50;;;4.80;99.90;;;;;;4936599;29;20240;-72
2022/01/25 17:04:08;;;;;;;36.93;11.30;;;4.90;99.90;;;;;;4936886;29;20209;-72
2022/01/25 17:06:36;;;;;;;38.87;11.40;;;4.70;99.90;;;;;;4935256;29;20209;-73
2022/01/25 17:09:04;;;;;;;35.20;11.30;;;4.80;99.90;;;;;;4936928;29;20303;-73
2022/01/25 17:11:31;;;;;;;35.13;10.87;;;4.90;99.90;;;;;;4934224;29;20349;-72
2022/01/25 17:13:58;;;;;;;34.90;11.17;;;4.90;99.90;;;;;;4936469;29;20249;-72
2022/01/25 17:16:25;;;;;;;37.67;11.27;;;4.80;99.90;;;;;;4936209;29;20304;-71
2022/01/25 17:18:55;;;;;;;30.90;10.13;;;4.80;99.90;;;;;;4936309;29;20296;-72
2022/01/25 17:21:22;;;;;;;36.40;10.40;;;4.80;99.90;;;;;;4935535;29;20389;-72
2022/01/25 17:23:48;;;;;;;34.17;9.83;;;4.80;99.90;;;;;;4935210;29;20236;-71
2022/01/25 17:26:16;;;;;;;31.53;9.23;;;4.80;99.90;;;;;;4936661;29;20296;-70
2022/01/25 17:28:43;;;;;;;32.20;9.80;;;4.70;99.90;;;;;;4936266;29;20312;-72
2022/01/25 17:31:09;;;;;;;40.23;10.83;;;4.80;99.90;;;;;;4935477;29;20324;-72
2022/01/25 17:33:36;;;;;;;31.17;9.57;;;4.70;99.90;;;;;;4935564;29;20237;-72
2022/01/25 17:36:05;;;;;;;42.83;11.13;;;4.80;99.90;;;;;;4935439;29;20278;-72
2022/01/25 17:38:32;;;;;;;28.50;9.60;;;4.80;99.90;;;;;;4935457;29;20252;-72
2022/01/25 17:40:59;;;;;;;32.43;10.93;;;4.90;99.90;;;;;;4935816;29;20300;-72
2022/01/25 17:43:26;;;;;;;38.47;10.00;;;5.00;99.90;;;;;;4936323;29;20263;-71
2022/01/25 17:45:54;;;;;;;32.80;10.93;;;5.00;99.90;;;;;;4936491;29;20205;-72
2022/01/25 17:48:21;;;;;;;35.53;9.97;;;4.90;99.90;;;;;;4935318;29;20320;-73
2022/01/25 17:50:49;;;;;;;29.83;8.87;;;4.90;99.90;;;;;;4935556;29;20243;-72
2022/01/25 17:53:19;;;;;;;34.33;9.60;;;5.00;99.90;;;;;;4936082;29;20237;-73
2022/01/25 17:55:46;;;;;;;32.47;11.63;;;4.90;99.90;;;;;;4935723;29;20766;-72
2022/01/25 17:58:13;;;;;;;32.63;10.57;;;4.80;99.90;;;;;;4935161;29;20692;-72
2022/01/25 18:00:40;;;;;;;34.63;10.33;;;4.80;99.90;;;;;;4934644;29;20304;-72
2022/01/25 18:03:07;;;;;;;34.27;10.03;;;4.90;99.90;;;;;;4935693;29;20631;-73
2022/01/25 18:05:34;;;;;;;32.47;10.20;;;4.70;99.90;;;;;;4936042;29;20316;-73
2022/01/25 18:08:01;;;;;;;31.27;9.30;;;4.60;99.90;;;;;;4935753;29;20229;-73
2022/01/25 18:10:30;;;;;;;25.23;9.30;;;4.20;99.90;;;;;;4934775;29;20267;-72
2022/01/25 18:12:57;;;;;;;38.30;9.40;;;3.90;99.90;;;;;;4934652;29;20284;-73
2022/01/25 18:15:24;;;;;;;36.17;10.73;;;3.80;99.90;;;;;;4935378;29;20212;-74
2022/01/25 18:17:50;;;;;;;35.13;10.40;;;3.90;99.90;;;;;;4935202;29;20268;-73
2022/01/25 18:20:19;;;;;;;26.63;9.27;;;4.10;99.90;;;;;;4934949;29;20640;-73
2022/01/25 18:22:53;;;;;;;33.67;10.37;;;4.10;99.90;;;;;;4934468;29;20232;-73
2022/01/25 18:25:51;;;;;;;37.00;10.53;;;4.10;99.90;;;;;;4934644;29;20279;-73
2022/01/25 18:28:20;;;;;;;37.23;9.60;;;4.10;99.90;;;;;;4934242;29;20311;-74
2022/01/25 18:30:47;;;;;;;31.47;10.00;;;4.20;99.90;;;;;;4934583;29;20653;-73
2022/01/25 18:33:14;;;;;;;35.67;10.43;;;4.20;99.90;;;;;;4935374;29;20300;-74
2022/01/25 18:35:45;;;;;;;35.13;9.53;;;4.30;99.90;;;;;;4934881;29;20292;-74
2022/01/25 18:38:13;;;;;;;34.70;10.70;;;4.40;99.90;;;;;;4934788;29;20300;-74
2022/01/25 18:40:40;;;;;;;36.03;10.43;;;4.40;99.90;;;;;;4934431;29;20236;-73
2022/01/25 18:43:07;;;;;;;31.07;9.27;;;4.40;99.90;;;;;;4934502;29;20292;-74
2022/01/25 18:45:36;;;;;;;34.83;10.70;;;4.40;99.90;;;;;;4934364;29;20295;-73
2022/01/25 18:48:04;;;;;;;40.20;11.00;;;4.50;99.90;;;;;;4934211;29;20256;-73
2022/01/25 18:50:31;;;;;;;29.63;9.87;;;4.30;99.90;;;;;;4934810;29;20246;-73
2022/01/25 18:52:59;;;;;;;41.93;10.77;;;4.10;99.90;;;;;;4934910;29;20620;-73
2022/01/25 18:55:26;;;;;;;29.83;9.93;;;3.90;99.90;;;;;;4934201;29;20279;-73
2022/01/25 18:57:53;;;;;;;31.93;9.50;;;3.80;99.90;;;;;;4930414;29;20236;-74
2022/01/25 19:00:20;;;;;;;33.20;10.93;;;3.80;99.90;;;;;;4932922;29;20236;-73
2022/01/25 19:02:49;;;;;;;43.53;10.77;;;4.00;99.90;;;;;;4937706;29;20235;-74
2022/01/25 19:05:17;;;;;;;38.63;10.17;;;4.00;99.90;;;;;;4938026;29;20396;-73
2022/01/25 19:07:44;;;;;;;31.00;9.13;;;4.10;99.90;;;;;;4938205;29;20236;-74
2022/01/25 19:10:13;;;;;;;39.50;10.33;;;4.00;99.90;;;;;;4937540;29;20699;-73
2022/01/25 19:12:41;;;;;;;32.43;9.33;;;4.00;99.90;;;;;;4919797;29;20241;-73
2022/01/25 19:15:09;;;;;;;40.00;10.57;;;4.10;99.90;;;;;;4926235;29;20232;-73
2022/01/25 19:17:36;;;;;;;44.20;10.73;;;4.20;99.90;;;;;;4937821;29;20312;-73
2022/01/25 19:20:05;;;;;;;37.30;11.40;;;4.30;99.90;;;;;;4936957;29;20292;-72
2022/01/25 19:22:33;;;;;;;37.77;10.17;;;4.40;99.90;;;;;;4938941;29;20557;-73
2022/01/25 19:25:01;;;;;;;35.20;9.87;;;4.50;99.90;;;;;;4938983;29;20304;-73
2022/01/25 19:27:28;;;;;;;34.47;9.67;;;4.50;99.90;;;;;;4937552;29;20252;-73
2022/01/25 19:29:56;;;;;;;36.07;10.07;;;4.50;99.90;;;;;;4937870;29;20336;-73
2022/01/25 19:32:23;;;;;;;44.33;11.70;;;4.50;99.90;;;;;;4937115;29;20209;-72
2022/01/25 19:34:50;;;;;;;37.33;10.30;;;4.40;99.90;;;;;;4936349;29;20311;-73
2022/01/25 19:37:21;;;;;;;35.43;10.30;;;4.40;99.90;;;;;;4938372;29;20267;-72
2022/01/25 19:39:51;;;;;;;32.23;9.27;;;4.40;99.90;;;;;;4938682;29;20303;-73
2022/01/25 19:42:19;;;;;;;30.33;8.77;;;4.30;99.90;;;;;;4926072;29;20202;-73
2022/01/25 19:44:46;;;;;;;40.87;10.63;;;4.40;99.90;;;;;;4935262;29;20252;-73
2022/01/25 19:47:13;;;;;;;37.30;9.93;;;4.40;99.90;;;;;;4938432;29;20320;-72
2022/01/25 19:49:40;;;;;;;29.80;9.47;;;4.40;99.90;;;;;;4937819;29;20292;-71
2022/01/25 19:52:12;;;;;;;37.77;10.50;;;4.40;99.90;;;;;;4937254;29;20331;-71
2022/01/25 19:54:41;;;;;;;32.37;10.70;;;4.40;99.90;;;;;;4937458;29;20220;-72
2022/01/25 19:57:10;;;;;;;36.37;10.20;;;4.50;99.90;;;;;;4938036;29;20320;-73
2022/01/25 19:59:38;;;;;;;30.90;9.27;;;4.70;99.90;;;;;;4937341;29;20201;-73
2022/01/25 20:02:05;;;;;;;35.17;10.60;;;4.70;99.90;;;;;;4937655;29;20220;-73
2022/01/25 20:04:32;;;;;;;30.60;9.40;;;4.80;99.90;;;;;;4937763;29;20300;-73
2022/01/25 20:07:01;;;;;;;35.50;10.70;;;4.70;99.90;;;;;;4937622;29;20315;-73
2022/01/25 20:09:30;;;;;;;37.30;9.57;;;4.60;99.90;;;;;;4938017;29;20255;-73
2022/01/25 20:12:03;;;;;;;40.37;10.13;;;4.50;99.90;;;;;;4935870;29;20237;-71
2022/01/25 20:14:29;;;;;;;33.57;9.80;;;4.50;99.90;;;;;;4937120;29;20200;-71
2022/01/25 20:16:56;;;;;;;39.57;11.40;;;4.50;99.90;;;;;;4937582;29;20312;-73
2022/01/25 20:19:23;;;;;;;37.27;9.07;;;4.50;99.90;;;;;;4937187;29;20699;-73
2022/01/25 20:21:55;;;;;;;40.40;10.87;;;4.50;99.90;;;;;;4937213;29;20232;-73
2022/01/25 20:24:27;;;;;;;39.77;9.90;;;4.30;99.90;;;;;;4934939;29;20201;-72
2022/01/25 20:27:02;;;;;;;44.57;11.67;;;4.30;99.90;;;;;;4937335;29;20584;-72
2022/01/25 20:29:35;;;;;;;38.00;10.70;;;4.20;99.90;;;;;;4932618;29;20673;-73
2022/01/25 20:32:04;;;;;;;36.50;10.53;;;4.20;99.90;;;;;;4934749;29;20236;-72
2022/01/25 20:34:32;;;;;;;35.60;10.03;;;4.20;99.90;;;;;;4936946;29;20616;-73
2022/01/25 20:36:59;;;;;;;40.53;10.67;;;4.10;99.90;;;;;;4932503;29;20228;-74
2022/01/25 20:39:26;;;;;;;41.10;11.10;;;4.10;99.90;;;;;;4936549;29;20304;-73
2022/01/25 20:41:53;;;;;;;39.83;11.60;;;4.10;99.90;;;;;;4936589;29;20636;-72
2022/01/25 20:44:20;;;;;;;48.67;10.63;;;4.10;99.90;;;;;;4935171;29;20239;-72
2022/01/25 20:46:48;;;;;;;42.83;10.70;;;4.10;99.90;;;;;;4928746;29;20249;-73
2022/01/25 20:49:15;;;;;;;34.03;10.23;;;4.20;99.90;;;;;;4932382;29;20300;-74
2022/01/25 20:51:42;;;;;;;43.67;9.33;;;4.20;99.90;;;;;;4925501;29;20763;-72
2022/01/25 20:54:10;;;;;;;41.73;10.07;;;4.30;99.90;;;;;;4918517;29;20301;-72
2022/01/25 20:56:37;;;;;;;41.60;10.53;;;4.40;99.90;;;;;;4917522;29;20206;-72
2022/01/25 20:59:04;;;;;;;31.57;9.83;;;4.40;99.90;;;;;;4917007;29;20251;-72
2022/01/25 21:01:34;;;;;;;36.27;9.17;;;4.30;99.90;;;;;;4928706;29;20255;-73
2022/01/25 21:04:34;;;;;;;40.00;10.30;;;4.40;99.90;;;;;;4936174;29;20311;-73
2022/01/25 21:07:00;;;;;;;32.07;8.87;;;4.40;99.90;;;;;;4936581;29;20256;-72
2022/01/25 21:09:29;;;;;;;40.90;8.80;;;4.40;99.90;;;;;;4936035;29;20213;-73
2022/01/25 21:11:59;;;;;;;32.47;9.20;;;4.30;99.90;;;;;;4935266;29;20615;-72
2022/01/25 21:14:26;;;;;;;35.13;9.47;;;4.50;99.90;;;;;;4935486;29;20296;-71
2022/01/25 21:16:53;;;;;;;27.43;8.83;;;4.50;99.90;;;;;;4935849;29;20669;-73
2022/01/25 21:19:22;;;;;;;35.20;9.40;;;4.30;99.90;;;;;;4931290;29;20284;-72
2022/01/25 21:21:49;;;;;;;37.47;9.20;;;4.30;99.90;;;;;;4927536;29;20242;-73
2022/01/25 21:24:21;;;;;;;40.90;9.23;;;4.30;99.90;;;;;;4927388;29;20292;-73
2022/01/25 21:26:48;;;;;;;40.97;10.70;;;4.50;99.90;;;;;;4936090;29;20224;-73
